sensor_id;sensor_type;location;lat;lon;timestamp;pressure;altitude;pressure_sealevel;temperature;humidity
9784;BME280;4931;44.874;-1.092;2024-03-02T00:00:20;99993.00;;;9.46;100.00
9784;BME280;4931;44.874;-1.092;2024-03-02T00:02:47;99989.75;;;9.44;100.00
9784;BME280;4931;44.874;-1.092;2024-03-02T00:05:21;99979.94;;;9.38;100.00
9784;BME280;4931;44.874;-1.092;2024-03-02T00:07:55;99982.38;;;9.40;100.00
9784;BME280;4931;44.874;-1.092;2024-03-02T00:10:30;99976.06;;;9.44;100.00
9784;BME280;4931;44.874;-1.092;2024-03-02T00:13:02;99966.81;;;9.40;100.00
9784;BME280;4931;44.874;-1.092;2024-03-02T00:18:11;99961.53;;;9.44;100.00
9784;BME280;4931;44.874;-1.092;2024-03-02T00:20:37;99954.78;;;9.36;100.00
9784;BME280;4931;44.874;-1.092;2024-03-02T00:23:05;99945.00;;;9.30;100.00
9784;BME280;4931;44.874;-1.092;2024-03-02T00:25:43;99945.56;;;9.27;100.00
9784;BME280;4931;44.874;-1.092;2024-03-02T00:28:35;99944.19;;;9.29;100.00
9784;BME280;4931;44.874;-1.092;2024-03-02T00:31:06;99936.38;;;9.18;100.00
9784;BME280;4931;44.874;-1.092;2024-03-02T00:33:47;99934.28;;;9.34;100.00
9784;BME280;4931;44.874;-1.092;2024-03-02T00:36:14;99940.69;;;9.24;100.00
9784;BME280;4931;44.874;-1.092;2024-03-02T00:38:50;99937.78;;;9.39;100.00
9784;BME280;4931;44.874;-1.092;2024-03-02T00:46:20;99932.72;;;9.27;100.00
9784;BME280;4931;44.874;-1.092;2024-03-02T00:48:55;99924.66;;;9.36;100.00
9784;BME280;4931;44.874;-1.092;2024-03-02T00:51:22;99918.84;;;9.19;100.00
9784;BME280;4931;44.874;-1.092;2024-03-02T00:53:49;99911.56;;;9.33;100.00
9784;BME280;4931;44.874;-1.092;2024-03-02T00:56:15;99916.47;;;9.36;100.00
9784;BME280;4931;44.874;-1.092;2024-03-02T00:58:40;99910.41;;;9.39;100.00
9784;BME280;4931;44.874;-1.092;2024-03-02T01:01:06;99906.09;;;9.33;100.00
9784;BME280;4931;44.874;-1.092;2024-03-02T01:03:33;99901.66;;;9.37;100.00
9784;BME280;4931;44.874;-1.092;2024-03-02T01:05:59;99899.81;;;9.33;100.00
9784;BME280;4931;44.874;-1.092;2024-03-02T01:08:24;99895.16;;;9.33;100.00
9784;BME280;4931;44.874;-1.092;2024-03-02T01:10:50;99895.63;;;9.40;100.00
9784;BME280;4931;44.874;-1.092;2024-03-02T01:13:16;99890.66;;;9.42;100.00
9784;BME280;4931;44.874;-1.092;2024-03-02T01:15:41;99882.69;;;9.46;100.00
9784;BME280;4931;44.874;-1.092;2024-03-02T01:18:06;99882.22;;;9.39;100.00
9784;BME280;4931;44.874;-1.092;2024-03-02T01:20:33;99873.19;;;9.38;100.00
9784;BME280;4931;44.874;-1.092;2024-03-02T01:22:58;99874.75;;;9.44;100.00
9784;BME280;4931;44.874;-1.092;2024-03-02T01:25:24;99875.22;;;9.52;100.00
9784;BME280;4931;44.874;-1.092;2024-03-02T01:27:50;99867.00;;;9.52;100.00
9784;BME280;4931;44.874;-1.092;2024-03-02T01:30:16;99862.63;;;9.51;100.00
9784;BME280;4931;44.874;-1.092;2024-03-02T01:32:41;99851.66;;;9.51;100.00
9784;BME280;4931;44.874;-1.092;2024-03-02T01:35:07;99853.91;;;9.49;100.00
9784;BME280;4931;44.874;-1.092;2024-03-02T01:37:33;99851.09;;;9.54;100.00
9784;BME280;4931;44.874;-1.092;2024-03-02T01:39:58;99842.88;;;9.54;100.00
9784;BME280;4931;44.874;-1.092;2024-03-02T01:42:24;99850.06;;;9.50;100.00
9784;BME280;4931;44.874;-1.092;2024-03-02T01:44:50;99842.34;;;9.52;100.00
9784;BME280;4931;44.874;-1.092;2024-03-02T01:47:15;99839.53;;;9.57;100.00
9784;BME280;4931;44.874;-1.092;2024-03-02T01:49:41;99832.66;;;9.59;100.00
9784;BME280;4931;44.874;-1.092;2024-03-02T01:52:07;99824.84;;;9.72;100.00
9784;BME280;4931;44.874;-1.092;2024-03-02T01:54:32;99816.88;;;9.70;100.00
9784;BME280;4931;44.874;-1.092;2024-03-02T01:56:58;99799.50;;;9.61;100.00
9784;BME280;4931;44.874;-1.092;2024-03-02T01:59:24;99795.66;;;9.62;100.00
9784;BME280;4931;44.874;-1.092;2024-03-02T02:01:50;99787.75;;;9.41;100.00
9784;BME280;4931;44.874;-1.092;2024-03-02T02:04:15;99787.31;;;9.34;100.00
9784;BME280;4931;44.874;-1.092;2024-03-02T02:06:43;99786.41;;;9.39;100.00
9784;BME280;4931;44.874;-1.092;2024-03-02T02:09:09;99781.47;;;9.41;100.00
9784;BME280;4931;44.874;-1.092;2024-03-02T02:11:34;99777.81;;;9.45;100.00
9784;BME280;4931;44.874;-1.092;2024-03-02T02:14:00;99779.38;;;9.52;100.00
9784;BME280;4931;44.874;-1.092;2024-03-02T02:16:25;99770.00;;;9.58;100.00
9784;BME280;4931;44.874;-1.092;2024-03-02T02:18:51;99767.97;;;9.63;100.00
9784;BME280;4931;44.874;-1.092;2024-03-02T02:21:16;99762.28;;;9.60;100.00
9784;BME280;4931;44.874;-1.092;2024-03-02T02:23:42;99755.03;;;9.69;100.00
9784;BME280;4931;44.874;-1.092;2024-03-02T02:26:13;99749.25;;;9.71;100.00
9784;BME280;4931;44.874;-1.092;2024-03-02T02:28:39;99737.06;;;9.63;100.00
9784;BME280;4931;44.874;-1.092;2024-03-02T02:31:11;99739.09;;;9.71;100.00
9784;BME280;4931;44.874;-1.092;2024-03-02T02:33:39;99732.53;;;9.72;100.00
9784;BME280;4931;44.874;-1.092;2024-03-02T02:36:05;99731.91;;;9.75;100.00
9784;BME280;4931;44.874;-1.092;2024-03-02T02:38:32;99730.94;;;9.85;100.00
9784;BME280;4931;44.874;-1.092;2024-03-02T02:40:58;99719.38;;;9.88;100.00
9784;BME280;4931;44.874;-1.092;2024-03-02T02:43:24;99713.09;;;9.88;100.00
9784;BME280;4931;44.874;-1.092;2024-03-02T02:45:49;99712.47;;;9.91;100.00
9784;BME280;4931;44.874;-1.092;2024-03-02T02:48:15;99694.78;;;9.69;100.00
9784;BME280;4931;44.874;-1.092;2024-03-02T02:50:41;99697.41;;;9.74;100.00
9784;BME280;4931;44.874;-1.092;2024-03-02T02:53:06;99694.81;;;9.83;100.00
9784;BME280;4931;44.874;-1.092;2024-03-02T02:55:35;99684.88;;;9.87;100.00
9784;BME280;4931;44.874;-1.092;2024-03-02T02:58:03;99673.41;;;9.85;100.00
9784;BME280;4931;44.874;-1.092;2024-03-02T03:00:28;99668.84;;;9.80;100.00
9784;BME280;4931;44.874;-1.092;2024-03-02T03:02:54;99675.94;;;9.82;100.00
9784;BME280;4931;44.874;-1.092;2024-03-02T03:05:19;99702.69;;;9.71;100.00
9784;BME280;4931;44.874;-1.092;2024-03-02T03:07:45;99684.66;;;9.51;100.00
9784;BME280;4931;44.874;-1.092;2024-03-02T03:10:11;99649.16;;;9.45;100.00
9784;BME280;4931;44.874;-1.092;2024-03-02T03:12:36;99642.34;;;9.29;100.00
9784;BME280;4931;44.874;-1.092;2024-03-02T03:15:03;99634.84;;;8.83;100.00
9784;BME280;4931;44.874;-1.092;2024-03-02T03:17:29;99641.75;;;8.56;100.00
9784;BME280;4931;44.874;-1.092;2024-03-02T03:19:55;99610.38;;;8.29;100.00
9784;BME280;4931;44.874;-1.092;2024-03-02T03:22:20;99616.88;;;8.09;100.00
9784;BME280;4931;44.874;-1.092;2024-03-02T03:24:46;99627.31;;;8.26;100.00
9784;BME280;4931;44.874;-1.092;2024-03-02T03:27:11;99620.75;;;8.27;100.00
9784;BME280;4931;44.874;-1.092;2024-03-02T03:29:37;99608.38;;;8.35;100.00
9784;BME280;4931;44.874;-1.092;2024-03-02T03:32:03;99604.44;;;8.46;100.00
9784;BME280;4931;44.874;-1.092;2024-03-02T03:34:32;99598.00;;;8.56;100.00
9784;BME280;4931;44.874;-1.092;2024-03-02T03:36:58;99601.22;;;8.63;100.00
9784;BME280;4931;44.874;-1.092;2024-03-02T03:39:23;99591.34;;;8.81;100.00
9784;BME280;4931;44.874;-1.092;2024-03-02T03:41:49;99574.28;;;8.89;100.00
9784;BME280;4931;44.874;-1.092;2024-03-02T03:44:14;99564.78;;;9.01;100.00
9784;BME280;4931;44.874;-1.092;2024-03-02T03:46:39;99553.28;;;9.18;100.00
9784;BME280;4931;44.874;-1.092;2024-03-02T03:49:05;99536.88;;;9.18;100.00
9784;BME280;4931;44.874;-1.092;2024-03-02T03:51:30;99532.88;;;9.29;100.00
9784;BME280;4931;44.874;-1.092;2024-03-02T03:53:56;99524.75;;;9.24;100.00
9784;BME280;4931;44.874;-1.092;2024-03-02T03:56:21;99531.75;;;9.30;100.00
9784;BME280;4931;44.874;-1.092;2024-03-02T03:58:47;99524.25;;;9.36;100.00
9784;BME280;4931;44.874;-1.092;2024-03-02T04:01:12;99534.09;;;9.37;100.00
9784;BME280;4931;44.874;-1.092;2024-03-02T04:03:38;99531.22;;;9.28;100.00
9784;BME280;4931;44.874;-1.092;2024-03-02T04:06:04;99528.59;;;9.23;100.00
9784;BME280;4931;44.874;-1.092;2024-03-02T04:08:30;99523.56;;;9.30;100.00
9784;BME280;4931;44.874;-1.092;2024-03-02T04:10:55;99504.44;;;8.97;100.00
9784;BME280;4931;44.874;-1.092;2024-03-02T04:13:21;99534.59;;;8.92;100.00
9784;BME280;4931;44.874;-1.092;2024-03-02T04:15:46;99540.16;;;8.87;100.00
9784;BME280;4931;44.874;-1.092;2024-03-02T04:18:12;99524.03;;;8.85;100.00
9784;BME280;4931;44.874;-1.092;2024-03-02T04:20:37;99510.88;;;8.87;100.00
9784;BME280;4931;44.874;-1.092;2024-03-02T04:23:03;99533.84;;;8.86;100.00
9784;BME280;4931;44.874;-1.092;2024-03-02T04:25:28;99527.91;;;8.98;100.00
9784;BME280;4931;44.874;-1.092;2024-03-02T04:27:54;99543.34;;;9.08;100.00
9784;BME280;4931;44.874;-1.092;2024-03-02T04:30:19;99537.41;;;9.20;100.00
9784;BME280;4931;44.874;-1.092;2024-03-02T04:32:45;99540.63;;;9.22;100.00
9784;BME280;4931;44.874;-1.092;2024-03-02T04:35:12;99542.28;;;9.23;100.00
9784;BME280;4931;44.874;-1.092;2024-03-02T04:37:40;99534.50;;;9.30;100.00
9784;BME280;4931;44.874;-1.092;2024-03-02T04:40:06;99528.41;;;9.33;100.00
9784;BME280;4931;44.874;-1.092;2024-03-02T04:42:36;99531.75;;;9.30;100.00
9784;BME280;4931;44.874;-1.092;2024-03-02T04:45:02;99535.28;;;9.30;100.00
9784;BME280;4931;44.874;-1.092;2024-03-02T04:47:27;99529.41;;;9.23;100.00
9784;BME280;4931;44.874;-1.092;2024-03-02T04:49:53;99539.97;;;9.30;100.00
9784;BME280;4931;44.874;-1.092;2024-03-02T04:52:18;99528.59;;;9.23;100.00
9784;BME280;4931;44.874;-1.092;2024-03-02T04:54:44;99550.69;;;9.26;100.00
9784;BME280;4931;44.874;-1.092;2024-03-02T04:57:28;99563.22;;;9.13;100.00
9784;BME280;4931;44.874;-1.092;2024-03-02T04:59:53;99569.31;;;9.10;100.00
9784;BME280;4931;44.874;-1.092;2024-03-02T05:02:18;99575.53;;;8.97;100.00
9784;BME280;4931;44.874;-1.092;2024-03-02T05:04:44;99572.50;;;8.99;100.00
9784;BME280;4931;44.874;-1.092;2024-03-02T05:07:10;99592.38;;;9.04;100.00
9784;BME280;4931;44.874;-1.092;2024-03-02T05:09:35;99582.44;;;9.08;100.00
9784;BME280;4931;44.874;-1.092;2024-03-02T05:12:01;99592.97;;;9.01;100.00
9784;BME280;4931;44.874;-1.092;2024-03-02T05:14:45;99582.63;;;8.98;100.00
9784;BME280;4931;44.874;-1.092;2024-03-02T05:17:11;99578.78;;;8.99;100.00
9784;BME280;4931;44.874;-1.092;2024-03-02T05:19:37;99579.97;;;8.93;100.00
9784;BME280;4931;44.874;-1.092;2024-03-02T05:22:02;99570.56;;;8.99;100.00
9784;BME280;4931;44.874;-1.092;2024-03-02T05:24:28;99566.56;;;9.10;100.00
9784;BME280;4931;44.874;-1.092;2024-03-02T05:26:54;99565.06;;;8.85;100.00
9784;BME280;4931;44.874;-1.092;2024-03-02T05:29:19;99562.97;;;8.96;100.00
9784;BME280;4931;44.874;-1.092;2024-03-02T05:31:45;99557.88;;;8.89;100.00
9784;BME280;4931;44.874;-1.092;2024-03-02T05:34:11;99547.50;;;9.05;100.00
9784;BME280;4931;44.874;-1.092;2024-03-02T05:36:36;99538.84;;;8.98;100.00
9784;BME280;4931;44.874;-1.092;2024-03-02T05:39:04;99536.19;;;8.93;100.00
9784;BME280;4931;44.874;-1.092;2024-03-02T05:41:31;99534.00;;;8.95;100.00
9784;BME280;4931;44.874;-1.092;2024-03-02T05:43:56;99522.97;;;9.00;100.00
9784;BME280;4931;44.874;-1.092;2024-03-02T05:46:22;99525.06;;;8.89;100.00
9784;BME280;4931;44.874;-1.092;2024-03-02T05:48:47;99521.00;;;8.87;100.00
9784;BME280;4931;44.874;-1.092;2024-03-02T05:51:13;99518.28;;;8.87;100.00
9784;BME280;4931;44.874;-1.092;2024-03-02T05:53:38;99517.19;;;9.02;100.00
9784;BME280;4931;44.874;-1.092;2024-03-02T05:56:05;99520.06;;;9.10;100.00
9784;BME280;4931;44.874;-1.092;2024-03-02T05:58:30;99515.28;;;9.02;100.00
9784;BME280;4931;44.874;-1.092;2024-03-02T06:01:19;99506.38;;;9.10;100.00
9784;BME280;4931;44.874;-1.092;2024-03-02T06:03:45;99500.38;;;9.08;100.00
9784;BME280;4931;44.874;-1.092;2024-03-02T06:06:10;99498.75;;;9.07;100.00
9784;BME280;4931;44.874;-1.092;2024-03-02T06:08:36;99492.09;;;9.13;100.00
9784;BME280;4931;44.874;-1.092;2024-03-02T06:11:01;99487.25;;;8.77;100.00
9784;BME280;4931;44.874;-1.092;2024-03-02T06:13:27;99482.63;;;8.59;100.00
9784;BME280;4931;44.874;-1.092;2024-03-02T06:15:52;99476.38;;;8.72;100.00
9784;BME280;4931;44.874;-1.092;2024-03-02T06:18:18;99463.50;;;8.59;100.00
9784;BME280;4931;44.874;-1.092;2024-03-02T06:20:44;99443.03;;;8.56;100.00
9784;BME280;4931;44.874;-1.092;2024-03-02T06:23:09;99437.66;;;8.65;100.00
9784;BME280;4931;44.874;-1.092;2024-03-02T06:25:35;99434.84;;;8.56;100.00
9784;BME280;4931;44.874;-1.092;2024-03-02T06:28:00;99424.44;;;8.72;100.00
9784;BME280;4931;44.874;-1.092;2024-03-02T06:30:26;99430.56;;;8.64;100.00
9784;BME280;4931;44.874;-1.092;2024-03-02T06:32:51;99425.59;;;8.33;100.00
9784;BME280;4931;44.874;-1.092;2024-03-02T06:35:17;99425.88;;;8.51;100.00
9784;BME280;4931;44.874;-1.092;2024-03-02T06:37:42;99416.94;;;8.45;100.00
9784;BME280;4931;44.874;-1.092;2024-03-02T06:40:08;99405.78;;;8.41;100.00
9784;BME280;4931;44.874;-1.092;2024-03-02T06:42:34;99412.88;;;8.42;100.00
9784;BME280;4931;44.874;-1.092;2024-03-02T06:45:00;99412.53;;;8.49;100.00
9784;BME280;4931;44.874;-1.092;2024-03-02T06:47:26;99400.09;;;8.38;100.00
9784;BME280;4931;44.874;-1.092;2024-03-02T06:49:51;99384.22;;;8.59;100.00
9784;BME280;4931;44.874;-1.092;2024-03-02T06:52:18;99377.34;;;8.42;100.00
9784;BME280;4931;44.874;-1.092;2024-03-02T06:54:43;99373.38;;;8.54;100.00
9784;BME280;4931;44.874;-1.092;2024-03-02T06:57:09;99371.38;;;8.40;100.00
9784;BME280;4931;44.874;-1.092;2024-03-02T06:59:35;99363.31;;;8.49;100.00
9784;BME280;4931;44.874;-1.092;2024-03-02T07:02:00;99357.63;;;8.45;100.00
9784;BME280;4931;44.874;-1.092;2024-03-02T07:04:27;99355.56;;;8.56;100.00
9784;BME280;4931;44.874;-1.092;2024-03-02T07:06:52;99357.78;;;8.54;100.00
9784;BME280;4931;44.874;-1.092;2024-03-02T07:09:18;99364.22;;;8.44;100.00
9784;BME280;4931;44.874;-1.092;2024-03-02T07:11:43;99365.38;;;8.57;100.00
9784;BME280;4931;44.874;-1.092;2024-03-02T07:14:09;99358.31;;;8.56;100.00
9784;BME280;4931;44.874;-1.092;2024-03-02T07:16:37;99361.75;;;8.62;100.00
9784;BME280;4931;44.874;-1.092;2024-03-02T07:19:03;99350.91;;;8.57;100.00
9784;BME280;4931;44.874;-1.092;2024-03-02T07:21:29;99356.97;;;8.68;100.00
9784;BME280;4931;44.874;-1.092;2024-03-02T07:23:54;99356.19;;;8.67;100.00
9784;BME280;4931;44.874;-1.092;2024-03-02T07:26:20;99345.34;;;8.62;100.00
9784;BME280;4931;44.874;-1.092;2024-03-02T07:28:46;99340.09;;;8.79;100.00
9784;BME280;4931;44.874;-1.092;2024-03-02T07:31:13;99334.44;;;8.90;100.00
9784;BME280;4931;44.874;-1.092;2024-03-02T07:33:38;99328.97;;;8.90;100.00
9784;BME280;4931;44.874;-1.092;2024-03-02T07:36:04;99330.16;;;8.84;100.00
9784;BME280;4931;44.874;-1.092;2024-03-02T07:38:30;99328.75;;;8.72;100.00
9784;BME280;4931;44.874;-1.092;2024-03-02T07:40:56;99326.94;;;8.82;100.00
9784;BME280;4931;44.874;-1.092;2024-03-02T07:43:22;99316.19;;;8.71;100.00
9784;BME280;4931;44.874;-1.092;2024-03-02T07:45:48;99310.09;;;8.74;100.00
9784;BME280;4931;44.874;-1.092;2024-03-02T07:48:14;99310.00;;;8.79;100.00
9784;BME280;4931;44.874;-1.092;2024-03-02T07:50:40;99309.09;;;8.70;100.00
9784;BME280;4931;44.874;-1.092;2024-03-02T07:53:05;99307.88;;;8.90;100.00
9784;BME280;4931;44.874;-1.092;2024-03-02T07:55:32;99302.81;;;8.97;100.00
9784;BME280;4931;44.874;-1.092;2024-03-02T07:57:58;99294.94;;;8.68;100.00
9784;BME280;4931;44.874;-1.092;2024-03-02T08:00:24;99294.94;;;8.68;100.00
9784;BME280;4931;44.874;-1.092;2024-03-02T08:02:51;99299.56;;;8.54;100.00
9784;BME280;4931;44.874;-1.092;2024-03-02T08:05:17;99292.06;;;8.45;100.00
9784;BME280;4931;44.874;-1.092;2024-03-02T08:07:44;99291.28;;;8.59;100.00
9784;BME280;4931;44.874;-1.092;2024-03-02T08:10:11;99288.81;;;8.57;100.00
9784;BME280;4931;44.874;-1.092;2024-03-02T08:12:36;99281.34;;;8.63;100.00
9784;BME280;4931;44.874;-1.092;2024-03-02T08:15:02;99270.81;;;8.70;100.00
9784;BME280;4931;44.874;-1.092;2024-03-02T08:17:27;99273.34;;;8.53;100.00
9784;BME280;4931;44.874;-1.092;2024-03-02T08:19:53;99281.34;;;8.63;100.00
9784;BME280;4931;44.874;-1.092;2024-03-02T08:22:19;99283.47;;;8.66;100.00
9784;BME280;4931;44.874;-1.092;2024-03-02T08:24:45;99272.41;;;8.43;100.00
9784;BME280;4931;44.874;-1.092;2024-03-02T08:27:10;99276.84;;;8.39;100.00
9784;BME280;4931;44.874;-1.092;2024-03-02T08:29:37;99267.97;;;8.47;100.00
9784;BME280;4931;44.874;-1.092;2024-03-02T08:32:03;99263.06;;;8.30;100.00
9784;BME280;4931;44.874;-1.092;2024-03-02T08:34:28;99258.72;;;8.29;100.00
9784;BME280;4931;44.874;-1.092;2024-03-02T08:36:54;99247.22;;;8.46;100.00
9784;BME280;4931;44.874;-1.092;2024-03-02T08:39:19;99245.25;;;8.33;100.00
9784;BME280;4931;44.874;-1.092;2024-03-02T08:41:46;99236.06;;;8.43;100.00
9784;BME280;4931;44.874;-1.092;2024-03-02T08:44:12;99247.66;;;8.54;100.00
9784;BME280;4931;44.874;-1.092;2024-03-02T08:46:39;99241.88;;;8.55;100.00
9784;BME280;4931;44.874;-1.092;2024-03-02T08:49:04;99236.00;;;8.62;100.00
9784;BME280;4931;44.874;-1.092;2024-03-02T08:51:30;99231.53;;;8.66;100.00
9784;BME280;4931;44.874;-1.092;2024-03-02T08:53:57;99231.34;;;8.49;100.00
9784;BME280;4931;44.874;-1.092;2024-03-02T08:56:23;99222.44;;;8.57;100.00
9784;BME280;4931;44.874;-1.092;2024-03-02T08:58:50;99217.69;;;8.49;100.00
9784;BME280;4931;44.874;-1.092;2024-03-02T09:01:16;99199.94;;;8.60;100.00
9784;BME280;4931;44.874;-1.092;2024-03-02T09:03:42;99198.63;;;8.71;100.00
9784;BME280;4931;44.874;-1.092;2024-03-02T09:06:12;99196.09;;;8.61;100.00
9784;BME280;4931;44.874;-1.092;2024-03-02T09:08:38;99190.81;;;8.92;100.00
9784;BME280;4931;44.874;-1.092;2024-03-02T09:11:05;99195.47;;;8.92;100.00
9784;BME280;4931;44.874;-1.092;2024-03-02T09:13:31;99209.81;;;9.11;100.00
9784;BME280;4931;44.874;-1.092;2024-03-02T09:15:56;99199.69;;;8.98;100.00
9784;BME280;4931;44.874;-1.092;2024-03-02T09:18:22;99215.50;;;9.01;100.00
9784;BME280;4931;44.874;-1.092;2024-03-02T09:20:47;99214.47;;;9.11;100.00
9784;BME280;4931;44.874;-1.092;2024-03-02T09:23:13;99220.78;;;8.97;100.00
9784;BME280;4931;44.874;-1.092;2024-03-02T09:25:38;99206.56;;;9.09;100.00
9784;BME280;4931;44.874;-1.092;2024-03-02T09:28:04;99202.31;;;9.03;100.00
9784;BME280;4931;44.874;-1.092;2024-03-02T09:30:29;99203.56;;;8.97;100.00
9784;BME280;4931;44.874;-1.092;2024-03-02T09:32:55;99198.00;;;9.02;100.00
9784;BME280;4931;44.874;-1.092;2024-03-02T09:35:20;99198.28;;;9.01;100.00
9784;BME280;4931;44.874;-1.092;2024-03-02T09:37:46;99188.09;;;9.15;100.00
9784;BME280;4931;44.874;-1.092;2024-03-02T09:40:12;99183.34;;;9.21;100.00
9784;BME280;4931;44.874;-1.092;2024-03-02T09:42:38;99172.22;;;9.40;100.00
9784;BME280;4931;44.874;-1.092;2024-03-02T09:45:05;99170.78;;;9.20;100.00
9784;BME280;4931;44.874;-1.092;2024-03-02T09:47:30;99173.13;;;9.12;100.00
9784;BME280;4931;44.874;-1.092;2024-03-02T09:49:56;99171.84;;;9.33;100.00
9784;BME280;4931;44.874;-1.092;2024-03-02T09:52:24;99171.41;;;9.39;100.00
9784;BME280;4931;44.874;-1.092;2024-03-02T09:54:50;99174.25;;;9.57;100.00
9784;BME280;4931;44.874;-1.092;2024-03-02T09:57:16;99174.13;;;9.62;100.00
9784;BME280;4931;44.874;-1.092;2024-03-02T09:59:41;99174.81;;;9.90;100.00
9784;BME280;4931;44.874;-1.092;2024-03-02T10:02:07;99167.78;;;9.75;100.00
9784;BME280;4931;44.874;-1.092;2024-03-02T10:04:33;99173.84;;;9.95;100.00
9784;BME280;4931;44.874;-1.092;2024-03-02T10:07:18;99174.81;;;9.90;100.00
9784;BME280;4931;44.874;-1.092;2024-03-02T10:09:48;99163.97;;;10.17;100.00
9784;BME280;4931;44.874;-1.092;2024-03-02T10:12:16;99169.59;;;9.80;100.00
9784;BME280;4931;44.874;-1.092;2024-03-02T10:14:42;99156.47;;;10.00;100.00
9784;BME280;4931;44.874;-1.092;2024-03-02T10:17:09;99150.88;;;10.13;100.00
9784;BME280;4931;44.874;-1.092;2024-03-02T10:19:36;99146.38;;;10.18;100.00
9784;BME280;4931;44.874;-1.092;2024-03-02T10:22:03;99140.16;;;10.26;100.00
9784;BME280;4931;44.874;-1.092;2024-03-02T10:24:44;99144.00;;;10.25;100.00
9784;BME280;4931;44.874;-1.092;2024-03-02T10:27:15;99136.75;;;10.29;100.00
9784;BME280;4931;44.874;-1.092;2024-03-02T10:29:41;99128.41;;;10.34;100.00
9784;BME280;4931;44.874;-1.092;2024-03-02T10:32:11;99130.03;;;10.35;100.00
9784;BME280;4931;44.874;-1.092;2024-03-02T10:34:37;99121.06;;;10.61;100.00
9784;BME280;4931;44.874;-1.092;2024-03-02T10:37:03;99106.75;;;10.24;100.00
9784;BME280;4931;44.874;-1.092;2024-03-02T10:39:29;99108.13;;;10.35;100.00
9784;BME280;4931;44.874;-1.092;2024-03-02T10:41:57;99112.59;;;10.31;100.00
9784;BME280;4931;44.874;-1.092;2024-03-02T10:44:23;99104.94;;;10.51;100.00
9784;BME280;4931;44.874;-1.092;2024-03-02T10:46:51;99111.69;;;10.44;100.00
9784;BME280;4931;44.874;-1.092;2024-03-02T10:49:19;99105.41;;;10.53;100.00
9784;BME280;4931;44.874;-1.092;2024-03-02T10:51:46;99104.53;;;10.26;100.00
9784;BME280;4931;44.874;-1.092;2024-03-02T10:54:11;99107.00;;;10.45;100.00
9784;BME280;4931;44.874;-1.092;2024-03-02T10:56:41;99101.88;;;10.52;100.00
9784;BME280;4931;44.874;-1.092;2024-03-02T11:01:55;99091.88;;;10.74;100.00
9784;BME280;4931;44.874;-1.092;2024-03-02T11:04:22;99098.44;;;10.46;100.00
9784;BME280;4931;44.874;-1.092;2024-03-02T11:06:50;99098.00;;;10.53;100.00
9784;BME280;4931;44.874;-1.092;2024-03-02T11:09:19;99100.41;;;10.55;100.00
9784;BME280;4931;44.874;-1.092;2024-03-02T11:11:49;99104.94;;;10.51;100.00
9784;BME280;4931;44.874;-1.092;2024-03-02T11:14:22;99096.84;;;10.45;100.00
9784;BME280;4931;44.874;-1.092;2024-03-02T11:16:49;99108.78;;;10.50;100.00
9784;BME280;4931;44.874;-1.092;2024-03-02T11:19:16;99102.09;;;10.24;100.00
9784;BME280;4931;44.874;-1.092;2024-03-02T11:21:42;99092.25;;;10.32;100.00
9784;BME280;4931;44.874;-1.092;2024-03-02T11:27:01;99045.47;;;10.02;100.00
9784;BME280;4931;44.874;-1.092;2024-03-02T11:32:06;99186.22;;;9.38;100.00
9784;BME280;4931;44.874;-1.092;2024-03-02T11:34:41;99223.97;;;9.13;100.00
9784;BME280;4931;44.874;-1.092;2024-03-02T11:37:12;99240.81;;;8.93;100.00
9784;BME280;4931;44.874;-1.092;2024-03-02T11:39:42;99237.81;;;8.80;100.00
9784;BME280;4931;44.874;-1.092;2024-03-02T11:42:08;99239.63;;;8.85;100.00
9784;BME280;4931;44.874;-1.092;2024-03-02T11:44:37;99227.50;;;8.77;100.00
9784;BME280;4931;44.874;-1.092;2024-03-02T11:47:07;99225.44;;;8.69;100.00
9784;BME280;4931;44.874;-1.092;2024-03-02T11:49:44;99234.78;;;8.68;100.00
9784;BME280;4931;44.874;-1.092;2024-03-02T11:52:13;99229.91;;;8.65;100.00
9784;BME280;4931;44.874;-1.092;2024-03-02T11:54:42;99220.81;;;8.56;100.00
9784;BME280;4931;44.874;-1.092;2024-03-02T11:57:21;99214.75;;;8.59;100.00
9784;BME280;4931;44.874;-1.092;2024-03-02T11:59:50;99220.41;;;8.62;100.00
9784;BME280;4931;44.874;-1.092;2024-03-02T12:02:17;99223.22;;;8.43;100.00
9784;BME280;4931;44.874;-1.092;2024-03-02T12:04:43;99206.44;;;8.50;100.00
9784;BME280;4931;44.874;-1.092;2024-03-02T12:07:10;99205.63;;;8.50;100.00
9784;BME280;4931;44.874;-1.092;2024-03-02T12:09:36;99195.50;;;8.50;100.00
9784;BME280;4931;44.874;-1.092;2024-03-02T12:14:29;99179.69;;;8.61;100.00
9784;BME280;4931;44.874;-1.092;2024-03-02T12:16:55;99165.72;;;8.62;100.00
9784;BME280;4931;44.874;-1.092;2024-03-02T12:19:21;99153.69;;;8.50;100.00
9784;BME280;4931;44.874;-1.092;2024-03-02T12:21:46;99155.31;;;8.51;100.00
9784;BME280;4931;44.874;-1.092;2024-03-02T12:24:12;99155.22;;;8.56;100.00
9784;BME280;4931;44.874;-1.092;2024-03-02T12:26:37;99143.94;;;8.71;100.00
9784;BME280;4931;44.874;-1.092;2024-03-02T12:29:03;99147.09;;;8.64;100.00
9784;BME280;4931;44.874;-1.092;2024-03-02T12:31:28;99132.53;;;8.41;100.00
9784;BME280;4931;44.874;-1.092;2024-03-02T12:33:54;99149.63;;;8.61;100.00
9784;BME280;4931;44.874;-1.092;2024-03-02T12:36:20;99157.63;;;8.71;100.00
9784;BME280;4931;44.874;-1.092;2024-03-02T12:38:45;99154.34;;;8.83;100.00
9784;BME280;4931;44.874;-1.092;2024-03-02T12:41:15;99158.41;;;8.86;100.00
9784;BME280;4931;44.874;-1.092;2024-03-02T12:43:41;99167.28;;;8.91;100.00
9784;BME280;4931;44.874;-1.092;2024-03-02T12:46:06;99176.22;;;8.97;100.00
9784;BME280;4931;44.874;-1.092;2024-03-02T12:48:32;99175.59;;;9.00;100.00
9784;BME280;4931;44.874;-1.092;2024-03-02T12:50:58;99172.63;;;9.10;100.00
9784;BME280;4931;44.874;-1.092;2024-03-02T12:53:24;99161.28;;;9.03;100.00
9784;BME280;4931;44.874;-1.092;2024-03-02T12:55:50;99164.22;;;9.07;100.00
9784;BME280;4931;44.874;-1.092;2024-03-02T12:58:19;99162.47;;;8.74;100.00
9784;BME280;4931;44.874;-1.092;2024-03-02T13:00:48;99161.75;;;9.19;100.00
9784;BME280;4931;44.874;-1.092;2024-03-02T13:03:14;99161.25;;;8.67;100.00
9784;BME280;4931;44.874;-1.092;2024-03-02T13:05:40;99160.16;;;8.68;100.00
9784;BME280;4931;44.874;-1.092;2024-03-02T13:08:06;99162.81;;;8.95;100.00
9784;BME280;4931;44.874;-1.092;2024-03-02T13:10:32;99169.13;;;8.96;100.00
9784;BME280;4931;44.874;-1.092;2024-03-02T13:12:58;99163.66;;;8.96;100.00
9784;BME280;4931;44.874;-1.092;2024-03-02T13:15:26;99164.84;;;9.04;100.00
9784;BME280;4931;44.874;-1.092;2024-03-02T13:17:52;99169.06;;;9.10;100.00
9784;BME280;4931;44.874;-1.092;2024-03-02T13:20:18;99173.13;;;9.12;100.00
9784;BME280;4931;44.874;-1.092;2024-03-02T13:22:44;99177.00;;;9.11;100.00
9784;BME280;4931;44.874;-1.092;2024-03-02T13:25:10;99177.78;;;9.12;100.00